createdAt,value
2017-05-25T00:00:17.512Z,985.99
2017-05-25T00:01:27.154Z,986
2017-05-25T00:02:37.410Z,985.97
2017-05-25T00:03:47.673Z,985.97
2017-05-25T00:04:57.381Z,985.98
2017-05-25T00:06:07.942Z,985.97
2017-05-25T00:07:18.206Z,986.03
2017-05-25T00:08:28.475Z,986.02
2017-05-25T00:09:38.751Z,986.01
2017-05-25T00:10:48.706Z,986
2017-05-25T00:11:58.869Z,986.03
2017-05-25T00:13:08.822Z,986.04
2017-05-25T00:14:19.091Z,986.02
2017-05-25T00:15:29.357Z,986.01
2017-05-25T00:16:39.615Z,986.03
2017-05-25T00:17:50.130Z,986.03
2017-05-25T00:19:00.392Z,986
2017-05-25T00:20:10.654Z,986.04
2017-05-25T00:21:20.606Z,985.98
2017-05-25T00:22:30.554Z,986.04
2017-05-25T00:23:40.469Z,986.01
2017-05-25T00:24:50.440Z,985.98
2017-05-25T00:26:00.704Z,986
2017-05-25T00:27:10.653Z,986.01
2017-05-25T00:28:21.116Z,985.99
2017-05-25T00:29:31.063Z,985.99
2017-05-25T00:30:40.695Z,985.99
2017-05-25T00:31:50.957Z,985.97
2017-05-25T00:33:00.910Z,986.03
2017-05-25T00:34:10.867Z,985.98
2017-05-25T00:35:21.385Z,986.01
2017-05-25T00:36:31.655Z,985.98
2017-05-25T00:37:41.602Z,985.98
2017-05-25T00:38:51.553Z,986.01
2017-05-25T00:40:01.503Z,986.03
2017-05-25T00:41:11.750Z,986.04
2017-05-25T00:42:21.698Z,985.96
2017-05-25T00:43:31.963Z,985.99
2017-05-25T00:44:42.235Z,985.97
2017-05-25T00:45:52.508Z,986
2017-05-25T00:47:02.652Z,985.99
2017-05-25T00:48:12.914Z,985.98
2017-05-25T00:49:23.187Z,986.02
2017-05-25T00:50:33.141Z,986
2017-05-25T00:51:43.406Z,985.98
2017-05-25T00:52:55.920Z,985.97
2017-05-25T00:54:05.869Z,986.03
2017-05-25T00:55:16.134Z,986.04
2017-05-25T00:56:26.084Z,986.08
2017-05-25T00:57:36.348Z,986.11
2017-05-25T00:58:46.501Z,986.1
2017-05-25T00:59:56.819Z,986.1
2017-05-25T01:01:07.095Z,986.11
2017-05-25T01:02:17.050Z,986.1
2017-05-25T01:03:27.314Z,986.08
2017-05-25T01:04:37.830Z,986.12
2017-05-25T01:05:48.097Z,986.12
2017-05-25T01:06:58.044Z,986.13
2017-05-25T01:08:07.997Z,986.12
2017-05-25T01:09:18.266Z,986.14
2017-05-25T01:10:28.838Z,986.18
2017-05-25T01:11:39.099Z,986.13
2017-05-25T01:12:49.360Z,986.13
2017-05-25T01:13:59.624Z,986.14
2017-05-25T01:15:09.576Z,986.11
2017-05-25T01:16:19.874Z,986.09
2017-05-25T01:17:30.140Z,986.11
2017-05-25T01:18:40.094Z,986.1
2017-05-25T01:19:50.373Z,986.08
2017-05-25T01:21:00.332Z,986.07
2017-05-25T01:22:12.906Z,986.09
2017-05-25T01:23:22.858Z,986.1
2017-05-25T01:24:33.120Z,986.12
2017-05-25T01:25:43.384Z,986.14
2017-05-25T01:26:53.643Z,986.16
2017-05-25T01:28:03.844Z,986.17
2017-05-25T01:29:14.107Z,986.19
2017-05-25T01:30:23.771Z,986.21
2017-05-25T01:31:33.718Z,986.24
2017-05-25T01:32:43.986Z,986.25
2017-05-25T01:33:54.451Z,986.26
2017-05-25T01:35:04.401Z,986.21
2017-05-25T01:36:14.350Z,986.25
2017-05-25T01:37:24.309Z,986.2
2017-05-25T01:38:34.570Z,986.16
2017-05-25T01:39:44.460Z,986.2
2017-05-25T01:40:54.731Z,986.18
2017-05-25T01:42:04.681Z,986.15
2017-05-25T01:43:14.947Z,986.2
2017-05-25T01:44:25.213Z,986.2
2017-05-25T01:45:35.724Z,986.21
2017-05-25T01:46:45.674Z,986.21
2017-05-25T01:47:55.362Z,986.19
2017-05-25T01:49:05.623Z,986.17
2017-05-25T01:50:15.573Z,986.19
2017-05-25T01:51:25.818Z,986.2
2017-05-25T01:52:36.082Z,986.19
2017-05-25T01:53:46.048Z,986.21
2017-05-25T01:54:56.333Z,986.18
2017-05-25T01:56:06.602Z,986.18
2017-05-25T01:57:17.111Z,986.2
2017-05-25T01:58:27.375Z,986.18
2017-05-25T01:59:37.326Z,986.18
2017-05-25T02:00:47.282Z,986.18
2017-05-25T02:01:57.230Z,986.17
2017-05-25T02:03:07.483Z,986.11
2017-05-25T02:04:17.431Z,986.11
2017-05-25T02:05:27.701Z,986.17
2017-05-25T02:06:37.968Z,986.17
2017-05-25T02:07:48.237Z,986.12
2017-05-25T02:08:58.801Z,986.12
2017-05-25T02:10:09.074Z,986.05
2017-05-25T02:11:19.018Z,986.09
2017-05-25T02:12:29.293Z,986.02
2017-05-25T02:13:39.560Z,986
2017-05-25T02:14:50.080Z,985.96
2017-05-25T02:16:00.340Z,985.88
2017-05-25T02:17:10.300Z,985.9
2017-05-25T02:18:20.570Z,985.96
2017-05-25T02:19:30.526Z,985.95
2017-05-25T02:20:40.987Z,986.02
2017-05-25T02:21:50.625Z,986.01
2017-05-25T02:23:00.585Z,986.04
2017-05-25T02:24:10.852Z,986.02
2017-05-25T02:25:20.486Z,986.05
2017-05-25T02:26:30.731Z,986.03
2017-05-25T02:27:40.680Z,986.04
2017-05-25T02:28:50.623Z,986.04
2017-05-25T02:30:00.260Z,985.97
2017-05-25T02:31:10.525Z,985.96
2017-05-25T02:32:20.731Z,985.93
2017-05-25T02:33:30.988Z,985.94
2017-05-25T02:34:41.285Z,985.94
2017-05-25T02:35:51.544Z,985.94
2017-05-25T02:37:01.802Z,985.88
2017-05-25T02:38:12.366Z,985.87
2017-05-25T02:39:22.632Z,985.87
2017-05-25T02:40:32.896Z,985.85
2017-05-25T02:41:42.531Z,985.85
2017-05-25T02:42:52.484Z,985.83
2017-05-25T02:44:04.746Z,985.85
2017-05-25T02:45:15.012Z,985.83
2017-05-25T02:46:24.959Z,985.77
2017-05-25T02:47:34.903Z,985.7
2017-05-25T02:48:45.175Z,985.7
2017-05-25T02:49:55.441Z,985.67
2017-05-25T02:51:05.073Z,985.65
2017-05-25T02:52:15.339Z,985.63
2017-05-25T02:53:25.301Z,985.66
2017-05-25T02:54:35.571Z,985.66
2017-05-25T02:55:45.828Z,985.68
2017-05-25T02:56:56.155Z,985.77
2017-05-25T02:58:05.786Z,985.72
2017-05-25T02:59:15.760Z,985.73
2017-05-25T03:00:26.031Z,985.74
2017-05-25T03:01:36.290Z,985.74
2017-05-25T03:02:46.557Z,985.74
2017-05-25T03:03:56.817Z,985.75
2017-05-25T03:05:06.762Z,985.77
2017-05-25T03:06:16.714Z,985.75
2017-05-25T03:07:26.977Z,985.72
2017-05-25T03:08:37.257Z,985.8
2017-05-25T03:09:47.520Z,985.83
2017-05-25T03:10:57.803Z,985.85
2017-05-25T03:12:07.752Z,985.83
2017-05-25T03:13:18.011Z,985.92
2017-05-25T03:14:27.959Z,985.93
2017-05-25T03:15:38.226Z,986
2017-05-25T03:16:48.218Z,985.97
2017-05-25T03:17:58.167Z,985.92
2017-05-25T03:19:07.498Z,985.95
2017-05-25T03:20:17.756Z,985.94
2017-05-25T03:21:28.019Z,985.89
2017-05-25T03:22:38.292Z,985.87
2017-05-25T03:23:48.239Z,985.86
2017-05-25T03:24:58.196Z,985.85
2017-05-25T03:26:07.830Z,985.84
2017-05-25T03:27:17.780Z,985.77
2017-05-25T03:28:27.732Z,985.78
2017-05-25T03:29:37.688Z,985.79
2017-05-25T03:30:47.631Z,985.83
2017-05-25T03:31:57.589Z,985.84
2017-05-25T03:33:06.906Z,985.82
2017-05-25T03:34:16.544Z,985.86
2017-05-25T03:35:26.800Z,985.87
2017-05-25T03:36:37.059Z,985.87
2017-05-25T03:37:47.319Z,985.86
2017-05-25T03:38:57.269Z,985.86
2017-05-25T03:40:07.530Z,985.89
2017-05-25T03:41:17.159Z,985.91
2017-05-25T03:42:27.104Z,985.91
2017-05-25T03:43:37.111Z,985.86
2017-05-25T03:44:47.378Z,985.87
2017-05-25T03:45:57.328Z,985.91
2017-05-25T03:47:07.587Z,985.85
2017-05-25T03:48:17.852Z,985.87
2017-05-25T03:49:27.809Z,985.82
2017-05-25T03:50:38.075Z,985.82
2017-05-25T03:51:48.336Z,985.84
2017-05-25T03:52:58.597Z,985.85
2017-05-25T03:54:08.866Z,985.79
2017-05-25T03:55:19.121Z,985.74
2017-05-25T03:56:28.772Z,985.82
2017-05-25T03:57:38.723Z,985.84
2017-05-25T03:58:48.991Z,985.91
2017-05-25T03:59:58.942Z,985.93
2017-05-25T04:01:09.217Z,985.96
2017-05-25T04:02:18.850Z,985.89
2017-05-25T04:03:29.110Z,985.86
2017-05-25T04:04:39.386Z,985.86
2017-05-25T04:05:49.654Z,985.87
2017-05-25T04:06:59.595Z,985.89
2017-05-25T04:08:09.861Z,985.96
2017-05-25T04:09:20.125Z,985.94
2017-05-25T04:10:30.068Z,985.93
2017-05-25T04:11:40.323Z,985.97
2017-05-25T04:12:50.277Z,985.98
2017-05-25T04:14:00.573Z,985.96
2017-05-25T04:15:10.517Z,985.95
2017-05-25T04:16:20.460Z,985.86
2017-05-25T04:17:30.719Z,985.89
2017-05-25T04:18:40.977Z,985.9
2017-05-25T04:19:51.245Z,985.88
2017-05-25T04:21:01.206Z,985.82
2017-05-25T04:22:11.468Z,985.92
2017-05-25T04:23:21.729Z,985.93
2017-05-25T04:24:31.991Z,985.91
2017-05-25T04:25:42.258Z,985.93
2017-05-25T04:26:52.522Z,985.92
2017-05-25T04:28:02.781Z,985.88
2017-05-25T04:29:13.049Z,985.88
2017-05-25T04:30:23.001Z,985.82
2017-05-25T04:31:33.262Z,985.81
2017-05-25T04:32:43.533Z,985.83
2017-05-25T04:33:53.796Z,985.8
2017-05-25T04:35:03.430Z,985.73
2017-05-25T04:36:12.766Z,985.73
2017-05-25T04:37:23.033Z,985.8
2017-05-25T04:38:33.305Z,985.81
2017-05-25T04:39:43.253Z,985.81
2017-05-25T04:40:53.528Z,985.85
2017-05-25T04:42:03.485Z,985.91
2017-05-25T04:43:13.435Z,985.96
2017-05-25T04:44:23.383Z,985.95
2017-05-25T04:45:33.335Z,985.99
2017-05-25T04:46:43.281Z,986.02
2017-05-25T04:47:53.234Z,986.01
2017-05-25T04:49:03.498Z,986.02
2017-05-25T04:50:13.451Z,986.06
2017-05-25T04:51:23.719Z,986.06
2017-05-25T04:52:34.023Z,986.07
2017-05-25T04:53:44.287Z,986.02
2017-05-25T04:54:54.546Z,985.93
2017-05-25T04:56:04.501Z,985.88
2017-05-25T04:57:14.766Z,985.88
2017-05-25T04:58:27.748Z,985.85
2017-05-25T04:59:38.006Z,985.89
2017-05-25T05:00:48.270Z,985.91
2017-05-25T05:01:58.236Z,985.91
2017-05-25T05:03:07.557Z,985.91
2017-05-25T05:04:17.817Z,985.9
2017-05-25T05:05:27.763Z,985.92
2017-05-25T05:06:37.719Z,985.93
2017-05-25T05:07:47.978Z,985.93
2017-05-25T05:08:58.245Z,985.93
2017-05-25T05:10:08.188Z,985.92
2017-05-25T05:11:18.133Z,985.98
2017-05-25T05:12:28.393Z,986.02
2017-05-25T05:13:38.033Z,986.02
2017-05-25T05:14:48.290Z,986.07
2017-05-25T05:15:58.235Z,986.09
2017-05-25T05:17:07.873Z,986.06
2017-05-25T05:18:17.823Z,986.02
2017-05-25T05:19:27.773Z,986.02
2017-05-25T05:20:38.044Z,985.99
2017-05-25T05:21:47.987Z,985.94
2017-05-25T05:22:58.252Z,985.97
2017-05-25T05:24:08.197Z,985.99
2017-05-25T05:25:18.146Z,986.04
2017-05-25T05:26:28.405Z,985.98
2017-05-25T05:27:38.669Z,985.97
2017-05-25T05:28:48.938Z,985.94
2017-05-25T05:29:58.893Z,985.94
2017-05-25T05:31:08.842Z,985.95
2017-05-25T05:32:19.105Z,986.03
2017-05-25T05:33:29.363Z,986.04
2017-05-25T05:34:39.324Z,986.02
2017-05-25T05:35:49.584Z,986.07
2017-05-25T05:36:59.840Z,986.04
2017-05-25T05:38:09.788Z,986.08
2017-05-25T05:39:20.047Z,986.08
2017-05-25T05:40:30.309Z,986.05
2017-05-25T05:41:40.573Z,986.08
2017-05-25T05:42:50.834Z,986.05
2017-05-25T05:44:00.785Z,986.05
2017-05-25T05:45:10.105Z,986
2017-05-25T05:46:20.061Z,985.95
2017-05-25T05:47:30.326Z,985.94
2017-05-25T05:48:40.588Z,985.92
2017-05-25T05:49:50.538Z,985.92
2017-05-25T05:51:00.813Z,986.02
2017-05-25T05:52:11.090Z,985.96
2017-05-25T05:53:21.352Z,985.99
2017-05-25T05:54:31.312Z,986
2017-05-25T05:55:41.261Z,985.89
2017-05-25T05:56:51.520Z,985.91
2017-05-25T05:58:01.787Z,985.92
2017-05-25T05:59:11.741Z,985.92
2017-05-25T06:00:21.376Z,985.92
2017-05-25T06:01:31.009Z,985.95
2017-05-25T06:02:41.278Z,985.95
2017-05-25T06:03:51.537Z,986.01
2017-05-25T06:05:01.489Z,986
2017-05-25T06:06:11.129Z,985.95
2017-05-25T06:07:21.090Z,985.97
2017-05-25T06:08:31.363Z,985.95
2017-05-25T06:09:41.015Z,985.99
2017-05-25T06:10:51.282Z,985.96
2017-05-25T06:12:01.562Z,985.97
2017-05-25T06:13:11.204Z,986.03
2017-05-25T06:14:21.154Z,986.02
2017-05-25T06:15:31.115Z,986
2017-05-25T06:16:41.064Z,985.97
2017-05-25T06:17:51.019Z,985.91
2017-05-25T06:19:00.966Z,985.91
2017-05-25T06:20:10.917Z,985.96
2017-05-25T06:21:20.872Z,986.03
2017-05-25T06:22:31.138Z,986.03
2017-05-25T06:23:40.772Z,985.99
2017-05-25T06:24:51.036Z,986
2017-05-25T06:26:01.302Z,985.98
2017-05-25T06:27:11.252Z,985.97
2017-05-25T06:28:21.207Z,985.98
2017-05-25T06:29:31.479Z,985.99
2017-05-25T06:30:41.116Z,986
2017-05-25T06:31:50.752Z,985.96
2017-05-25T06:33:01.027Z,985.95
2017-05-25T06:34:11.299Z,985.92
2017-05-25T06:35:21.567Z,985.96
2017-05-25T06:36:31.831Z,985.94
2017-05-25T06:37:42.102Z,985.96
2017-05-25T06:38:52.375Z,985.99
2017-05-25T06:40:02.638Z,985.95
2017-05-25T06:41:12.590Z,985.98
2017-05-25T06:42:22.540Z,986
2017-05-25T06:43:32.806Z,985.98
2017-05-25T06:44:43.080Z,985.95
2017-05-25T06:45:53.048Z,985.96
2017-05-25T06:47:03.314Z,985.94
2017-05-25T06:48:12.949Z,985.96
2017-05-25T06:49:22.904Z,986
2017-05-25T06:50:32.869Z,986.04
2017-05-25T06:51:42.833Z,986.09
2017-05-25T06:52:53.107Z,986.13
2017-05-25T06:54:03.056Z,986.09
2017-05-25T06:55:12.702Z,986.05
2017-05-25T06:56:22.976Z,985.97
2017-05-25T06:57:32.934Z,985.94
2017-05-25T06:58:43.201Z,985.94
2017-05-25T06:59:53.464Z,985.93
2017-05-25T07:01:08.768Z,985.88
2017-05-25T07:02:18.727Z,985.85
2017-05-25T07:03:28.991Z,985.85
2017-05-25T07:04:39.263Z,985.83
2017-05-25T07:05:49.533Z,985.91
2017-05-25T07:06:59.804Z,985.93
2017-05-25T07:08:09.757Z,985.92
2017-05-25T07:09:19.088Z,985.96
2017-05-25T07:10:29.356Z,985.93
2017-05-25T07:11:39.618Z,985.87
2017-05-25T07:12:49.891Z,985.9
2017-05-25T07:14:00.161Z,985.91
2017-05-25T07:15:10.109Z,985.94
2017-05-25T07:16:20.377Z,985.92
2017-05-25T07:17:30.644Z,985.89
2017-05-25T07:18:40.602Z,985.89
2017-05-25T07:19:50.874Z,985.89
2017-05-25T07:21:01.146Z,985.91
2017-05-25T07:22:11.418Z,985.93
2017-05-25T07:23:21.437Z,985.96
2017-05-25T07:24:31.709Z,985.98
2017-05-25T07:25:41.979Z,986.01
2017-05-25T07:26:51.933Z,986.02
2017-05-25T07:28:01.888Z,985.99
2017-05-25T07:29:11.843Z,985.99
2017-05-25T07:30:22.115Z,985.92
2017-05-25T07:31:32.381Z,985.87
2017-05-25T07:32:42.343Z,985.82
2017-05-25T07:33:52.611Z,985.83
2017-05-25T07:35:02.882Z,985.8
2017-05-25T07:36:12.836Z,985.83
2017-05-25T07:37:22.791Z,985.86
2017-05-25T07:38:33.054Z,985.89
2017-05-25T07:39:42.699Z,985.89
2017-05-25T07:40:52.665Z,985.93
2017-05-25T07:42:02.925Z,985.92
2017-05-25T07:43:12.885Z,985.92
2017-05-25T07:44:23.159Z,985.92
2017-05-25T07:45:33.443Z,985.92
2017-05-25T07:46:43.765Z,985.94
2017-05-25T07:47:54.029Z,985.93
2017-05-25T07:49:04.303Z,985.93
2017-05-25T07:50:14.263Z,985.96
2017-05-25T07:51:24.529Z,985.98
2017-05-25T07:52:34.798Z,985.89
2017-05-25T07:53:44.756Z,985.9
2017-05-25T07:54:54.715Z,985.89
2017-05-25T07:56:04.991Z,985.86
2017-05-25T07:57:15.262Z,985.83
2017-05-25T07:58:25.227Z,985.71
2017-05-25T07:59:34.871Z,985.74
2017-05-25T08:00:45.148Z,985.78
2017-05-25T08:01:55.425Z,985.86
2017-05-25T08:03:05.386Z,985.92
2017-05-25T08:04:15.028Z,985.94
2017-05-25T08:05:24.998Z,985.93
2017-05-25T08:06:34.952Z,985.92
2017-05-25T08:07:45.221Z,985.88
2017-05-25T08:08:54.873Z,985.87
2017-05-25T08:10:04.824Z,985.94
2017-05-25T08:11:14.775Z,985.96
2017-05-25T08:12:24.419Z,985.92
2017-05-25T08:13:34.689Z,985.89
2017-05-25T08:14:44.671Z,985.9
2017-05-25T08:15:54.635Z,985.84
2017-05-25T08:17:04.907Z,985.86
2017-05-25T08:18:15.176Z,985.84
2017-05-25T08:19:25.143Z,985.79
2017-05-25T08:20:35.100Z,985.68
2017-05-25T08:21:45.053Z,985.68
2017-05-25T08:22:55.323Z,985.7
2017-05-25T08:24:05.594Z,985.79
2017-05-25T08:25:15.236Z,985.82
2017-05-25T08:26:25.195Z,985.81
2017-05-25T08:27:35.458Z,985.77
2017-05-25T08:28:45.727Z,985.72
2017-05-25T08:29:56.007Z,985.76
2017-05-25T08:31:06.284Z,985.78
2017-05-25T08:32:16.554Z,985.79
2017-05-25T08:33:26.890Z,985.85
2017-05-25T08:34:37.169Z,985.8
2017-05-25T08:35:47.436Z,985.86
2017-05-25T08:36:57.701Z,985.9
2017-05-25T08:38:07.981Z,985.81
2017-05-25T08:39:17.947Z,985.82
2017-05-25T08:40:27.905Z,985.82
2017-05-25T08:41:38.179Z,985.82
2017-05-25T08:42:48.446Z,985.76
2017-05-25T08:43:58.726Z,985.74
2017-05-25T08:45:08.684Z,985.69
2017-05-25T08:46:18.646Z,985.75
2017-05-25T08:47:28.912Z,985.78
2017-05-25T08:48:39.177Z,985.79
2017-05-25T08:49:49.141Z,985.8
2017-05-25T08:50:59.418Z,985.84
2017-05-25T08:52:09.377Z,985.83
2017-05-25T08:53:19.668Z,985.82
2017-05-25T08:54:29.941Z,985.85
2017-05-25T08:55:39.901Z,985.81
2017-05-25T08:56:50.167Z,985.81
2017-05-25T08:58:00.439Z,985.8
2017-05-25T08:59:10.716Z,985.87
2017-05-25T09:00:20.994Z,985.91
2017-05-25T09:01:30.949Z,985.86
2017-05-25T09:02:41.220Z,985.83
2017-05-25T09:03:51.490Z,985.86
2017-05-25T09:05:01.460Z,985.85
2017-05-25T09:06:11.423Z,985.81
2017-05-25T09:07:21.383Z,985.77
2017-05-25T09:08:31.345Z,985.82
2017-05-25T09:09:41.624Z,985.85
2017-05-25T09:10:51.269Z,985.83
2017-05-25T09:12:00.914Z,985.75
2017-05-25T09:13:11.193Z,985.66
2017-05-25T09:14:20.838Z,985.63
2017-05-25T09:15:30.803Z,985.6
2017-05-25T09:16:41.069Z,985.57
2017-05-25T09:17:51.339Z,985.54
2017-05-25T09:19:01.297Z,985.5
2017-05-25T09:20:11.566Z,985.57
2017-05-25T09:21:21.839Z,985.54
2017-05-25T09:22:32.106Z,985.6
2017-05-25T09:23:42.068Z,985.57
2017-05-25T09:24:52.023Z,985.53
2017-05-25T09:26:01.982Z,985.57
2017-05-25T09:27:11.949Z,985.54
2017-05-25T09:28:21.909Z,985.57
2017-05-25T09:29:31.868Z,985.58
2017-05-25T09:30:42.144Z,985.57
2017-05-25T09:31:52.413Z,985.59
2017-05-25T09:33:02.685Z,985.63
2017-05-25T09:34:12.961Z,985.68
2017-05-25T09:35:22.608Z,985.61
2017-05-25T09:36:32.581Z,985.61
2017-05-25T09:37:42.852Z,985.52
2017-05-25T09:38:53.121Z,985.56
2017-05-25T09:40:03.090Z,985.59
2017-05-25T09:41:13.047Z,985.6
2017-05-25T09:42:23.325Z,985.61
2017-05-25T09:43:33.600Z,985.64
2017-05-25T09:44:43.877Z,985.59
2017-05-25T09:45:53.841Z,985.58
2017-05-25T09:47:04.109Z,985.61
2017-05-25T09:48:14.069Z,985.58
2017-05-25T09:49:23.402Z,985.59
2017-05-25T09:50:33.673Z,985.61
2017-05-25T09:51:43.953Z,985.62
2017-05-25T09:52:53.921Z,985.58
2017-05-25T09:54:04.204Z,985.61
2017-05-25T09:55:14.478Z,985.58
2017-05-25T09:56:24.125Z,985.54
2017-05-25T09:57:34.415Z,985.57
2017-05-25T09:58:44.692Z,985.6
2017-05-25T09:59:54.976Z,985.66
2017-05-25T10:01:04.935Z,985.68
2017-05-25T10:02:14.955Z,985.65
2017-05-25T10:03:24.909Z,985.55
2017-05-25T10:04:34.876Z,985.55
2017-05-25T10:05:45.168Z,985.53
2017-05-25T10:06:55.444Z,985.53
2017-05-25T10:08:05.720Z,985.45
2017-05-25T10:09:15.674Z,985.46
2017-05-25T10:10:25.322Z,985.43
2017-05-25T10:11:35.599Z,985.41
2017-05-25T10:12:45.557Z,985.35
2017-05-25T10:13:55.516Z,985.28
2017-05-25T10:15:05.476Z,985.28
2017-05-25T10:16:15.434Z,985.23
2017-05-25T10:17:25.701Z,985.2
2017-05-25T10:18:35.972Z,985.2
2017-05-25T10:19:45.936Z,985.16
2017-05-25T10:20:55.901Z,985.16
2017-05-25T10:22:06.171Z,985.11
2017-05-25T10:23:16.141Z,985.06
2017-05-25T10:24:26.105Z,985.03
2017-05-25T10:25:36.393Z,985.06
2017-05-25T10:26:46.670Z,984.99
2017-05-25T10:27:56.630Z,985
2017-05-25T10:29:06.911Z,985.04
2017-05-25T10:30:16.864Z,985.03
2017-05-25T10:31:26.509Z,985.05
2017-05-25T10:32:36.790Z,984.97
2017-05-25T10:33:47.067Z,984.95
2017-05-25T10:34:57.348Z,984.97
2017-05-25T10:36:07.303Z,984.99
2017-05-25T10:37:17.576Z,985
2017-05-25T10:38:27.538Z,985.04
2017-05-25T10:39:37.817Z,985
2017-05-25T10:40:48.094Z,984.96
2017-05-25T10:41:58.056Z,984.94
2017-05-25T10:43:08.019Z,984.87
2017-05-25T10:44:17.667Z,984.86
2017-05-25T10:45:27.945Z,984.87
2017-05-25T10:46:37.907Z,984.83
2017-05-25T10:47:48.178Z,984.8
2017-05-25T10:48:58.474Z,984.77
2017-05-25T10:50:08.749Z,984.75
2017-05-25T10:51:18.392Z,984.66
2017-05-25T10:52:27.777Z,984.68
2017-05-25T10:53:38.052Z,984.68
2017-05-25T10:54:47.702Z,984.65
2017-05-25T10:55:57.972Z,984.67
2017-05-25T10:57:07.610Z,984.6
2017-05-25T10:58:17.896Z,984.61
2017-05-25T10:59:28.176Z,984.56
2017-05-25T11:00:38.450Z,984.51
2017-05-25T11:01:48.405Z,984.52
2017-05-25T11:02:58.050Z,984.51
2017-05-25T11:04:08.021Z,984.51
2017-05-25T11:05:17.983Z,984.48
2017-05-25T11:06:27.936Z,984.47
2017-05-25T11:07:38.203Z,984.44
2017-05-25T11:08:48.481Z,984.36
2017-05-25T11:09:58.754Z,984.47
2017-05-25T11:11:09.022Z,984.54
2017-05-25T11:12:18.355Z,984.54
2017-05-25T11:13:28.317Z,984.47
2017-05-25T11:14:38.586Z,984.42
2017-05-25T11:15:48.555Z,984.41
2017-05-25T11:16:58.827Z,984.42
2017-05-25T11:18:08.781Z,984.39
2017-05-25T11:19:19.052Z,984.43
2017-05-25T11:20:28.384Z,984.47
2017-05-25T11:21:38.657Z,984.48
2017-05-25T11:22:48.926Z,984.46
2017-05-25T11:23:58.884Z,984.47
2017-05-25T11:25:08.521Z,984.46
2017-05-25T11:26:18.479Z,984.45
2017-05-25T11:27:28.748Z,984.52
2017-05-25T11:28:39.021Z,984.52
2017-05-25T11:29:48.987Z,984.53
2017-05-25T11:30:58.971Z,984.52
2017-05-25T11:32:08.922Z,984.47
2017-05-25T11:33:18.563Z,984.52
2017-05-25T11:34:28.524Z,984.54
2017-05-25T11:35:38.797Z,984.52
2017-05-25T11:36:49.070Z,984.54
2017-05-25T11:37:59.344Z,984.49
2017-05-25T11:39:09.634Z,984.49
2017-05-25T11:40:19.286Z,984.47
2017-05-25T11:41:29.562Z,984.43
2017-05-25T11:42:39.517Z,984.41
2017-05-25T11:43:49.166Z,984.32
2017-05-25T11:44:59.443Z,984.4
2017-05-25T11:46:09.405Z,984.41
2017-05-25T11:47:19.063Z,984.42
2017-05-25T11:48:29.347Z,984.31
2017-05-25T11:49:39.632Z,984.31
2017-05-25T11:50:49.919Z,984.36
2017-05-25T11:52:00.208Z,984.4
2017-05-25T11:53:10.186Z,984.42
2017-05-25T11:54:20.473Z,984.49
2017-05-25T11:55:29.805Z,984.39
2017-05-25T11:56:39.461Z,984.37
2017-05-25T11:57:49.739Z,984.38
2017-05-25T11:59:00.023Z,984.39
2017-05-25T12:00:09.990Z,984.46
2017-05-25T12:01:19.954Z,984.33
2017-05-25T12:02:29.609Z,984.31
2017-05-25T12:03:39.270Z,984.32
2017-05-25T12:04:49.562Z,984.41
2017-05-25T12:05:59.841Z,984.29
2017-05-25T12:07:09.811Z,984.31
2017-05-25T12:08:19.782Z,984.16
2017-05-25T12:09:30.070Z,984.23
2017-05-25T12:10:40.028Z,984.19
2017-05-25T12:11:49.684Z,984.14
2017-05-25T12:12:59.965Z,984.16
2017-05-25T12:14:09.935Z,984.07
2017-05-25T12:15:20.223Z,984.11
2017-05-25T12:16:30.503Z,984.1
2017-05-25T12:17:40.790Z,984.08
2017-05-25T12:18:50.762Z,983.99
2017-05-25T12:20:00.743Z,984.11
2017-05-25T12:21:10.722Z,984.21
2017-05-25T12:22:21.004Z,984.22
2017-05-25T12:23:30.969Z,984.17
2017-05-25T12:24:40.942Z,984.05
2017-05-25T12:25:50.916Z,983.87
2017-05-25T12:27:01.192Z,983.91
2017-05-25T12:28:11.159Z,984.16
2017-05-25T12:29:21.130Z,984.14
2017-05-25T12:30:31.417Z,984.17
2017-05-25T12:31:41.382Z,984.12
2017-05-25T12:32:51.350Z,984.01
2017-05-25T12:34:01.645Z,984.01
2017-05-25T12:35:11.927Z,984
2017-05-25T12:36:21.589Z,984.02
2017-05-25T12:37:31.560Z,984.02
2017-05-25T12:38:41.848Z,983.97
2017-05-25T12:39:52.144Z,983.83
2017-05-25T12:41:02.435Z,984.14
2017-05-25T12:42:12.407Z,984.04
2017-05-25T12:43:22.698Z,984.09
2017-05-25T12:44:32.988Z,984.16
2017-05-25T12:45:43.281Z,984.14
2017-05-25T12:46:53.265Z,984.09
2017-05-25T12:48:03.242Z,984.07
2017-05-25T12:49:12.904Z,984.15
2017-05-25T12:50:23.213Z,984.18
2017-05-25T12:51:33.184Z,984.11
2017-05-25T12:52:43.160Z,983.99
2017-05-25T12:53:53.133Z,984.06
2017-05-25T12:55:03.429Z,984.05
2017-05-25T12:56:13.088Z,984.11
2017-05-25T12:57:22.748Z,984.14
2017-05-25T12:58:32.721Z,984.17
2017-05-25T12:59:43.001Z,984.1
2017-05-25T13:00:52.975Z,984.05
2017-05-25T13:02:02.954Z,983.9
2017-05-25T13:03:12.612Z,983.86
2017-05-25T13:04:22.588Z,983.92
2017-05-25T13:05:32.247Z,983.87
2017-05-25T13:06:42.215Z,983.97
2017-05-25T13:07:52.501Z,983.94
2017-05-25T13:09:02.796Z,983.99
2017-05-25T13:10:12.773Z,983.99
2017-05-25T13:11:23.058Z,983.93
2017-05-25T13:12:33.340Z,983.93
2017-05-25T13:13:43.001Z,983.92
2017-05-25T13:14:53.289Z,983.47
2017-05-25T13:16:03.580Z,984.06
2017-05-25T13:17:13.556Z,983.96
2017-05-25T13:18:23.845Z,984.01
2017-05-25T13:19:34.142Z,983.95
2017-05-25T13:20:44.438Z,983.86
2017-05-25T13:21:54.725Z,983.86
2017-05-25T13:23:04.706Z,983.77
2017-05-25T13:24:15.046Z,983.85
2017-05-25T13:25:25.023Z,983.84
2017-05-25T13:26:34.678Z,983.83
2017-05-25T13:27:44.650Z,983.79
2017-05-25T13:28:54.622Z,983.75
2017-05-25T13:30:04.911Z,983.78
2017-05-25T13:31:14.892Z,983.83
2017-05-25T13:32:25.179Z,983.88
2017-05-25T13:33:35.155Z,983.92
2017-05-25T13:34:45.452Z,983.9
2017-05-25T13:35:55.112Z,984.01
2017-05-25T13:37:05.088Z,983.97
2017-05-25T13:38:15.374Z,984
2017-05-25T13:39:25.035Z,983.97
2017-05-25T13:40:34.699Z,983.9
2017-05-25T13:41:44.988Z,983.87
2017-05-25T13:42:54.955Z,983.83
2017-05-25T13:44:05.247Z,983.8
2017-05-25T13:45:14.917Z,983.84
2017-05-25T13:46:25.207Z,983.81
2017-05-25T13:47:35.498Z,983.71
2017-05-25T13:48:45.474Z,983.65
2017-05-25T13:49:55.457Z,983.71
2017-05-25T13:51:05.122Z,983.82
2017-05-25T13:52:15.410Z,983.66
2017-05-25T13:53:25.389Z,983.68
2017-05-25T13:54:35.682Z,983.81
2017-05-25T13:55:45.659Z,983.71
2017-05-25T13:56:55.637Z,983.49
2017-05-25T13:58:05.612Z,983.67
2017-05-25T13:59:15.587Z,983.59
2017-05-25T14:00:25.563Z,983.69
2017-05-25T14:01:35.849Z,983.77
2017-05-25T14:02:45.827Z,983.55
2017-05-25T14:03:55.801Z,983.88
2017-05-25T14:05:05.774Z,983.66
2017-05-25T14:06:15.746Z,983.77
2017-05-25T14:07:25.714Z,983.89
2017-05-25T14:08:35.706Z,983.64
2017-05-25T14:09:45.994Z,983.67
2017-05-25T14:10:56.278Z,983.66
2017-05-25T14:12:06.250Z,983.59
2017-05-25T14:13:16.229Z,983.62
2017-05-25T14:14:26.513Z,983.43
2017-05-25T14:15:36.794Z,983.38
2017-05-25T14:16:47.080Z,983.39
2017-05-25T14:17:57.368Z,983.39
2017-05-25T14:19:07.657Z,983.41
2017-05-25T14:20:17.315Z,983.43
2017-05-25T14:21:27.285Z,983.43
2017-05-25T14:22:37.256Z,983.44
2017-05-25T14:23:46.914Z,983.45
2017-05-25T14:24:57.203Z,983.49
2017-05-25T14:26:07.484Z,983.51
2017-05-25T14:27:17.770Z,983.48
2017-05-25T14:28:27.425Z,983.54
2017-05-25T14:29:37.704Z,983.57
2017-05-25T14:30:47.674Z,983.57
2017-05-25T14:31:57.955Z,983.59
2017-05-25T14:33:07.922Z,983.67
2017-05-25T14:34:17.894Z,983.65
2017-05-25T14:35:27.869Z,983.78
2017-05-25T14:36:38.217Z,983.97
2017-05-25T14:37:47.871Z,984.19